Time;durP1;ratioP1;P1;durP2;ratioP2;P2;SDS_P1;SDS_P2;PMS_P1;PMS_P2;Temp;Humidity;BMP_temperature;BMP_pressure;BME280_temperature;BME280_humidity;BME280_pressure;Samples;Min_cycle;Max_cycle;Signal;HPM_P1;HPM_P2
2022/01/20 00:01:46;;;;;;;44.05;20.95;;;;;;;5.14;100.00;101956.44;4906901;28;20110;-73
2022/01/20 00:04:26;;;;;;;42.35;21.88;;;;;;;5.10;100.00;101965.41;4940113;28;20090;-73
2022/01/20 00:09:54;;;;;;;32.83;17.90;;;;;;;5.02;100.00;101973.91;4948986;28;20063;-73
2022/01/20 00:25:54;;;;;;;34.70;19.30;;;;;;;4.69;100.00;101985.94;4941000;28;20035;-73
2022/01/20 00:28:27;;;;;;;39.10;20.75;;;;;;;4.67;100.00;101997.16;4917745;29;20117;-73
2022/01/20 00:31:06;;;;;;;40.35;20.17;;;;;;;4.66;100.00;101989.97;4910255;29;20499;-73
2022/01/20 00:33:39;;;;;;;39.97;19.80;;;;;;;4.61;100.00;101980.69;4928543;29;20544;-73
2022/01/20 00:38:34;;;;;;;32.20;18.02;;;;;;;4.53;100.00;101978.19;4959763;28;20030;-72
2022/01/20 00:40:59;;;;;;;38.65;18.80;;;;;;;4.46;100.00;101986.47;4940141;29;20079;-73
2022/01/20 00:43:25;;;;;;;33.58;18.40;;;;;;;4.37;100.00;101983.09;4913095;28;20031;-73
2022/01/20 00:45:50;;;;;;;31.80;17.95;;;;;;;4.38;100.00;102000.47;4928608;29;20039;-73
2022/01/20 00:48:16;;;;;;;33.15;16.55;;;;;;;4.32;100.00;101995.81;4942266;29;20109;-73
2022/01/20 00:50:42;;;;;;;31.85;17.25;;;;;;;4.30;100.00;101992.44;4952757;28;20039;-73
2022/01/20 00:53:08;;;;;;;33.10;16.42;;;;;;;4.28;100.00;102000.91;4940254;29;20050;-72
2022/01/20 00:55:33;;;;;;;37.20;18.70;;;;;;;4.19;100.00;102014.03;4924860;29;20039;-73
2022/01/20 00:57:59;;;;;;;28.63;15.50;;;;;;;4.18;100.00;102012.38;4912426;29;20035;-73
2022/01/20 01:00:24;;;;;;;32.10;16.73;;;;;;;4.13;100.00;102003.91;4912094;29;20042;-73
2022/01/20 01:02:50;;;;;;;33.50;15.50;;;;;;;4.09;100.00;102002.63;4926926;28;20035;-73
2022/01/20 01:05:15;;;;;;;30.25;16.67;;;;;;;4.09;100.00;102008.13;4912918;29;20039;-73
2022/01/20 01:07:46;;;;;;;40.70;18.20;;;;;;;4.06;100.00;102008.56;4927582;29;20039;-73
2022/01/20 01:10:24;;;;;;;33.15;16.42;;;;;;;4.04;100.00;102010.72;4912959;29;20037;-72
2022/01/20 01:13:03;;;;;;;28.60;16.00;;;;;;;4.00;100.00;102014.94;4936694;28;20062;-73
2022/01/20 01:15:34;;;;;;;32.03;16.75;;;;;;;4.02;100.00;102021.06;4930266;29;20059;-73
2022/01/20 01:23:12;;;;;;;35.10;16.83;;;;;;;3.92;100.00;102007.75;4937329;29;20374;-73
2022/01/20 01:25:37;;;;;;;31.00;16.45;;;;;;;3.93;100.00;102019.59;4970995;28;20023;-73
2022/01/20 01:28:03;;;;;;;32.80;16.40;;;;;;;3.94;100.00;102021.28;4925715;29;20118;-73
2022/01/20 01:30:58;;;;;;;34.53;14.95;;;;;;;3.92;100.00;102013.22;4942378;28;20039;-73
2022/01/20 01:33:24;;;;;;;27.83;15.57;;;;;;;3.94;100.00;102016.63;4935296;29;20039;-73
2022/01/20 01:35:56;;;;;;;31.65;15.48;;;;;;;3.93;100.00;102027.84;4896945;29;20106;-73
2022/01/20 01:38:38;;;;;;;28.77;15.27;;;;;;;3.95;100.00;102047.69;4960230;28;20067;-74
2022/01/20 01:41:17;;;;;;;34.17;15.70;;;;;;;3.92;100.00;102050.88;4958477;28;20055;-73
2022/01/20 01:43:46;;;;;;;32.17;14.48;;;;;;;3.95;100.00;102050.44;4945066;29;20043;-73
2022/01/20 01:46:12;;;;;;;31.30;13.50;;;;;;;3.96;100.00;102046.66;4952962;28;20036;-73
2022/01/20 01:48:40;;;;;;;29.05;13.25;;;;;;;3.97;100.00;102059.34;4936272;29;20035;-72
2022/01/20 01:51:06;;;;;;;28.73;13.10;;;;;;;3.94;100.00;102049.63;4957187;28;20492;-72
2022/01/20 01:53:31;;;;;;;30.45;13.77;;;;;;;3.96;100.00;102054.91;4894863;29;20034;-73
2022/01/20 01:55:57;;;;;;;26.13;12.68;;;;;;;3.95;100.00;102061.44;4931647;29;20519;-73
2022/01/20 01:58:22;;;;;;;27.10;11.68;;;;;;;3.94;100.00;102054.28;4910667;28;20027;-73
2022/01/20 02:00:48;;;;;;;24.17;11.75;;;;;;;3.95;100.00;102058.69;4921021;28;20100;-73
2022/01/20 02:03:14;;;;;;;26.58;12.48;;;;;;;3.95;100.00;102058.69;4919316;29;20031;-73
2022/01/20 02:06:21;;;;;;;23.35;10.50;;;;;;;3.93;100.00;102058.09;4946766;28;20047;-73
2022/01/20 02:19:09;;;;;;;22.73;8.07;;;;;;;3.80;100.00;102073.50;4945092;28;20067;-73
2022/01/20 02:21:44;;;;;;;25.55;9.00;;;;;;;3.75;100.00;102072.44;4950196;28;20031;-73
2022/01/20 02:24:09;;;;;;;14.93;7.60;;;;;;;3.73;100.00;102086.41;4929355;29;20039;-73
2022/01/20 02:26:35;;;;;;;20.38;7.90;;;;;;;3.73;100.00;102086.41;4906817;29;20485;-73
2022/01/20 02:29:00;;;;;;;21.33;6.93;;;;;;;3.71;100.00;102087.69;4935538;29;20032;-73
2022/01/20 02:31:26;;;;;;;19.92;6.82;;;;;;;3.68;100.00;102086.19;4909652;29;20062;-73
2022/01/20 02:33:51;;;;;;;19.67;6.68;;;;;;;3.57;100.00;102095.06;4897157;29;20027;-73
2022/01/20 02:36:18;;;;;;;17.00;6.32;;;;;;;3.55;100.00;102088.91;4941594;28;20472;-73
2022/01/20 02:38:55;;;;;;;15.90;5.60;;;;;;;3.52;100.00;102089.34;4913836;29;20114;-73
2022/01/20 02:46:48;;;;;;;15.93;5.30;;;;;;;3.42;100.00;102088.88;4939102;29;20023;-73
2022/01/20 02:49:15;;;;;;;21.80;5.93;;;;;;;3.36;100.00;102094.16;4954804;28;20476;-73
2022/01/20 02:51:49;;;;;;;17.08;5.20;;;;;;;3.33;100.00;102091.81;4938435;28;20493;-73
2022/01/20 02:54:15;;;;;;;21.75;5.80;;;;;;;3.30;100.00;102091.41;4924392;28;20078;-73
2022/01/20 02:56:40;;;;;;;21.33;5.38;;;;;;;3.26;100.00;102090.97;4924936;29;20031;-73
2022/01/20 02:59:06;;;;;;;18.55;5.68;;;;;;;3.23;100.00;102096.88;4959534;28;20039;-73
2022/01/20 03:01:32;;;;;;;19.90;5.45;;;;;;;3.23;100.00;102101.50;4910687;28;20034;-73
2022/01/20 03:03:58;;;;;;;17.77;5.38;;;;;;;3.17;100.00;102092.19;4902639;29;20032;-73
2022/01/20 03:06:24;;;;;;;16.20;4.60;;;;;;;3.18;100.00;102093.91;4934109;29;20437;-73
2022/01/20 03:08:49;;;;;;;16.20;5.00;;;;;;;3.11;100.00;102093.03;4918236;28;20090;-73
2022/01/20 03:11:15;;;;;;;17.08;5.10;;;;;;;3.10;100.00;102094.94;4935306;28;20045;-73
2022/01/20 03:13:40;;;;;;;16.55;4.97;;;;;;;3.10;100.00;102091.34;4965725;28;20081;-73
2022/01/20 03:16:06;;;;;;;20.73;5.75;;;;;;;3.07;100.00;102092.59;4928300;29;20031;-73
2022/01/20 03:18:31;;;;;;;12.23;4.00;;;;;;;3.04;100.00;102081.19;4935732;29;20028;-73
2022/01/20 03:20:57;;;;;;;18.73;5.53;;;;;;;3.05;100.00;102080.13;4949347;28;20046;-73
2022/01/20 03:23:22;;;;;;;20.73;5.10;;;;;;;2.99;100.00;102081.78;4895620;29;20024;-73
2022/01/20 03:25:48;;;;;;;15.95;4.00;;;;;;;3.01;100.00;102079.69;4910951;29;20053;-73
2022/01/20 03:28:14;;;;;;;14.13;4.28;;;;;;;2.98;100.00;102088.34;4920776;29;20067;-73
2022/01/20 03:30:39;;;;;;;15.52;4.53;;;;;;;2.92;100.00;102089.13;4917465;29;20039;-73
2022/01/20 03:33:05;;;;;;;17.13;4.88;;;;;;;2.89;100.00;102084.91;4930571;29;20027;-73
2022/01/20 03:35:31;;;;;;;27.35;5.40;;;;;;;2.85;100.00;102082.78;4894909;28;20035;-73
2022/01/20 03:37:57;;;;;;;22.65;5.05;;;;;;;2.85;100.00;102078.16;4954053;28;20039;-73
2022/01/20 03:40:23;;;;;;;16.25;4.43;;;;;;;2.74;100.00;102094.34;4891664;29;20058;-73
2022/01/20 03:42:49;;;;;;;17.98;4.40;;;;;;;2.74;100.00;102080.63;4930859;28;20023;-73
2022/01/20 03:45:15;;;;;;;14.82;4.60;;;;;;;2.72;100.00;102071.75;4929289;29;20032;-73
2022/01/20 03:47:40;;;;;;;19.48;4.85;;;;;;;2.70;100.00;102074.69;4943474;29;20023;-73
2022/01/20 03:50:10;;;;;;;13.77;4.38;;;;;;;2.72;100.00;102061.63;4911115;29;20038;-73
2022/01/20 03:52:35;;;;;;;18.00;4.90;;;;;;;2.62;100.00;102063.91;4908489;29;20404;-73
2022/01/20 03:55:01;;;;;;;18.95;4.85;;;;;;;2.54;100.00;102069.56;4910707;29;20031;-73
2022/01/20 03:57:27;;;;;;;17.70;4.72;;;;;;;2.58;100.00;102062.59;4920784;29;20031;-72
2022/01/20 03:59:53;;;;;;;23.70;4.82;;;;;;;2.58;100.00;102062.59;4908550;29;20040;-73
2022/01/20 04:02:18;;;;;;;16.80;4.22;;;;;;;2.54;100.00;102064.91;4925125;28;20031;-73
2022/01/20 04:04:44;;;;;;;19.08;4.65;;;;;;;2.55;100.00;102071.25;4984027;28;20039;-73
2022/01/20 04:07:09;;;;;;;17.90;4.47;;;;;;;2.51;100.00;102081.78;4934810;29;20031;-73
2022/01/20 04:09:35;;;;;;;16.05;4.20;;;;;;;2.51;100.00;102080.91;4923927;29;20027;-73
2022/01/20 04:12:00;;;;;;;17.00;4.05;;;;;;;2.44;100.00;102080.88;4927567;29;20039;-73
2022/01/20 04:14:28;;;;;;;16.65;5.65;;;;;;;2.42;100.00;102074.75;4955399;28;20504;-73
2022/01/20 04:19:22;;;;;;;22.52;4.63;;;;;;;2.31;100.00;102061.59;4926837;29;20539;-73
2022/01/20 04:21:48;;;;;;;19.95;5.32;;;;;;;2.29;100.00;102067.31;4930134;28;20035;-73
2022/01/20 04:24:14;;;;;;;19.02;4.68;;;;;;;2.27;100.00;102071.28;4957804;28;20085;-72
2022/01/20 04:26:41;;;;;;;14.95;4.00;;;;;;;2.26;100.00;102075.94;4953060;29;20038;-73
2022/01/20 04:29:07;;;;;;;19.00;4.45;;;;;;;2.24;100.00;102083.50;4925403;29;20043;-73
2022/01/20 04:31:34;;;;;;;20.73;4.90;;;;;;;2.26;100.00;102080.53;4913176;29;20054;-73
2022/01/20 04:33:59;;;;;;;15.63;3.97;;;;;;;2.27;100.00;102085.84;4897193;28;20034;-73
2022/01/20 04:36:26;;;;;;;18.15;3.65;;;;;;;2.24;100.00;102083.50;4961431;28;20100;-73
2022/01/20 04:38:51;;;;;;;15.57;4.32;;;;;;;2.24;100.00;102091.72;4945388;29;20050;-73
2022/01/20 04:41:17;;;;;;;13.50;4.68;;;;;;;2.26;100.00;102092.38;4913962;28;20042;-73
2022/01/20 04:43:42;;;;;;;15.15;4.35;;;;;;;2.26;100.00;102100.59;4949953;28;20031;-74
2022/01/20 04:46:26;;;;;;;15.38;4.20;;;;;;;2.23;100.00;102093.63;4952791;28;20035;-72
2022/01/20 04:59:33;;;;;;;13.43;4.40;;;;;;;2.11;100.00;102111.66;4924122;29;20373;-73
2022/01/20 05:01:59;;;;;;;7.85;3.47;;;;;;;2.08;100.00;102108.47;4929469;29;20185;-73
2022/01/20 05:04:25;;;;;;;11.27;3.55;;;;;;;2.03;100.00;102114.53;4969188;28;20067;-73
2022/01/20 05:06:54;;;;;;;14.02;5.28;;;;;;;2.01;100.00;102125.72;4928746;29;20027;-73
2022/01/20 05:09:21;;;;;;;14.48;4.55;;;;;;;1.99;100.00;102135.19;4929809;29;20118;-73
2022/01/20 05:11:51;;;;;;;16.33;4.75;;;;;;;2.00;100.00;102132.22;4928153;28;20042;-75
2022/01/20 05:14:16;;;;;;;15.20;5.22;;;;;;;1.95;100.00;102132.00;4956578;28;20101;-74
2022/01/20 05:16:42;;;;;;;18.85;5.30;;;;;;;1.93;100.00;102122.28;4949660;28;20024;-73
2022/01/20 05:19:08;;;;;;;17.65;4.07;;;;;;;1.89;100.00;102132.75;4944117;29;20448;-75
2022/01/20 05:21:33;;;;;;;16.48;4.60;;;;;;;1.87;100.00;102139.50;4912667;29;20027;-73
2022/01/20 05:23:59;;;;;;;14.70;4.63;;;;;;;1.85;100.00;102142.44;4969418;28;20090;-73
2022/01/20 05:26:24;;;;;;;15.25;4.50;;;;;;;1.82;100.00;102151.03;4911342;28;20035;-73
2022/01/20 05:28:49;;;;;;;16.17;4.85;;;;;;;1.79;100.00;102148.69;4928973;29;20035;-73
2022/01/20 05:31:15;;;;;;;12.90;4.97;;;;;;;1.78;100.00;102146.97;4958616;28;20027;-74
2022/01/20 05:33:40;;;;;;;13.80;4.25;;;;;;;1.75;100.00;102150.97;4914086;29;20027;-74
2022/01/20 05:36:06;;;;;;;12.32;4.05;;;;;;;1.75;100.00;102152.84;4942852;29;20847;-73
2022/01/20 05:38:31;;;;;;;11.25;4.25;;;;;;;1.72;100.00;102164.19;4911992;28;20115;-73
2022/01/20 05:40:57;;;;;;;13.32;4.07;;;;;;;1.68;100.00;102166.50;4925668;28;20055;-73
2022/01/20 05:43:22;;;;;;;9.15;3.63;;;;;;;1.68;100.00;102157.44;4956082;28;20054;-73
2022/01/20 05:45:48;;;;;;;13.10;3.65;;;;;;;1.64;100.00;102165.16;4957001;28;20039;-74
2022/01/20 05:48:16;;;;;;;14.27;3.90;;;;;;;1.66;100.00;102171.31;4929434;29;20027;-73
2022/01/20 05:50:42;;;;;;;13.68;4.40;;;;;;;1.56;100.00;102177.13;4913195;29;20395;-73
2022/01/20 05:53:08;;;;;;;12.77;4.20;;;;;;;1.58;100.00;102168.69;4941961;29;20027;-72
2022/01/20 05:55:34;;;;;;;16.45;4.90;;;;;;;1.56;100.00;102171.63;4943629;29;20693;-73
2022/01/20 05:57:59;;;;;;;10.05;4.15;;;;;;;1.54;100.00;102173.72;4894138;29;20047;-73
2022/01/20 06:00:25;;;;;;;13.07;4.38;;;;;;;1.51;100.00;102179.59;4959285;28;20110;-74
2022/01/20 06:05:35;;;;;;;11.80;4.28;;;;;;;1.48;100.00;102196.41;4944513;28;20027;-73
2022/01/20 06:08:01;;;;;;;16.15;4.57;;;;;;;1.47;100.00;102202.06;4958300;28;20535;-73
2022/01/20 06:10:26;;;;;;;15.25;5.10;;;;;;;1.42;100.00;102194.44;4956702;28;20067;-73
2022/01/20 06:12:52;;;;;;;12.43;5.95;;;;;;;1.39;100.00;102178.38;4940644;29;20078;-73
2022/01/20 06:15:17;;;;;;;13.13;6.68;;;;;;;1.41;100.00;102183.66;4946317;29;20031;-73
2022/01/20 06:17:43;;;;;;;16.45;9.23;;;;;;;1.35;100.00;102185.28;4958190;28;20539;-73
2022/01/20 06:20:09;;;;;;;19.80;9.70;;;;;;;1.36;100.00;102186.97;4958920;28;20035;-73
2022/01/20 06:22:35;;;;;;;19.15;9.18;;;;;;;1.26;100.00;102191.91;4934004;29;20111;-73
2022/01/20 06:25:02;;;;;;;24.85;10.60;;;;;;;1.29;100.00;102199.75;4970993;28;20121;-73
2022/01/20 06:27:28;;;;;;;23.15;9.73;;;;;;;1.27;100.00;102199.91;4959136;28;20039;-73
2022/01/20 06:29:53;;;;;;;18.55;9.05;;;;;;;1.24;100.00;102205.78;4952051;29;20054;-72
2022/01/20 06:32:19;;;;;;;18.90;7.90;;;;;;;1.21;100.00;102197.13;4957658;28;20027;-73
2022/01/20 06:34:44;;;;;;;17.30;7.75;;;;;;;1.19;100.00;102188.22;4959508;28;20031;-74
2022/01/20 06:37:10;;;;;;;19.65;7.03;;;;;;;1.17;100.00;102191.19;4942457;28;20019;-73
2022/01/20 06:39:35;;;;;;;16.17;7.40;;;;;;;1.16;100.00;102194.09;4956917;28;20071;-73
2022/01/20 06:42:01;;;;;;;13.95;6.68;;;;;;;1.14;100.00;102197.00;4975730;28;20034;-73
2022/01/20 06:44:27;;;;;;;15.52;6.43;;;;;;;1.13;100.00;102203.53;4953938;28;20108;-73
2022/01/20 06:46:52;;;;;;;16.27;6.32;;;;;;;1.13;100.00;102213.63;4956841;28;20418;-73
2022/01/20 06:49:18;;;;;;;16.35;6.18;;;;;;;1.07;100.00;102210.63;4941213;28;20039;-73
2022/01/20 06:51:44;;;;;;;15.60;6.32;;;;;;;1.05;100.00;102209.94;4954950;28;20039;-73
2022/01/20 06:54:10;;;;;;;13.70;5.82;;;;;;;1.03;100.00;102202.97;4943305;28;20039;-73
2022/01/20 06:56:36;;;;;;;15.07;5.07;;;;;;;0.95;100.00;102209.41;4958835;28;20038;-73
2022/01/20 06:59:01;;;;;;;10.88;5.15;;;;;;;0.97;100.00;102211.94;4956224;28;20047;-73
2022/01/20 07:01:27;;;;;;;11.85;4.82;;;;;;;0.94;100.00;102210.41;4956722;28;20031;-73
2022/01/20 07:03:53;;;;;;;13.18;5.70;;;;;;;0.92;100.00;102215.25;4958993;28;20058;-73
2022/01/20 07:06:18;;;;;;;9.85;4.65;;;;;;;0.89;100.00;102213.75;4955497;28;20023;-73
2022/01/20 07:08:43;;;;;;;12.90;5.10;;;;;;;0.92;100.00;102211.66;4930840;28;20531;-73
2022/01/20 07:11:09;;;;;;;11.50;4.43;;;;;;;0.84;100.00;102215.34;4956480;29;20035;-73
2022/01/20 07:13:35;;;;;;;10.68;4.50;;;;;;;0.80;100.00;102235.88;4957702;28;20085;-72
2022/01/20 07:16:02;;;;;;;11.18;4.60;;;;;;;0.80;100.00;102235.88;4940306;29;20039;-73
2022/01/20 07:18:27;;;;;;;12.07;4.25;;;;;;;0.73;100.00;102233.06;4961161;28;20027;-73
2022/01/20 07:20:53;;;;;;;11.07;4.60;;;;;;;0.71;100.00;102231.56;4956591;28;20041;-73
2022/01/20 07:23:18;;;;;;;11.13;4.15;;;;;;;0.67;100.00;102236.56;4958166;28;20027;-73
2022/01/20 07:25:44;;;;;;;10.80;4.20;;;;;;;0.65;100.00;102242.19;4957622;29;20062;-73
2022/01/20 07:28:09;;;;;;;8.23;3.88;;;;;;;0.61;100.00;102238.16;4956032;28;20393;-73
2022/01/20 07:30:35;;;;;;;11.48;5.13;;;;;;;0.60;100.00;102255.56;4936745;28;20254;-73
2022/01/20 07:33:03;;;;;;;12.48;4.93;;;;;;;0.59;100.00;102251.16;4945240;29;20087;-73
2022/01/20 07:35:29;;;;;;;11.45;5.30;;;;;;;0.59;100.00;102256.63;4957886;28;20055;-72
2022/01/20 07:37:54;;;;;;;17.45;5.13;;;;;;;0.57;100.00;102260.56;4923127;29;20031;-72
2022/01/20 07:40:20;;;;;;;14.18;5.32;;;;;;;0.55;100.00;102266.19;4939990;29;20043;-73
2022/01/20 07:42:46;;;;;;;17.45;6.05;;;;;;;0.53;100.00;102259.22;4943125;29;20031;-73
2022/01/20 07:45:11;;;;;;;15.95;5.28;;;;;;;0.51;100.00;102264.03;4958105;28;20042;-73
2022/01/20 07:47:37;;;;;;;14.88;6.03;;;;;;;0.54;100.00;102263.66;4937290;29;20476;-73
2022/01/20 07:50:03;;;;;;;15.95;7.47;;;;;;;0.50;100.00;102273.25;4943810;29;20039;-73
2022/01/20 07:52:28;;;;;;;14.88;6.65;;;;;;;0.50;100.00;102268.63;4911651;29;20039;-72
2022/01/20 07:54:54;;;;;;;18.75;7.38;;;;;;;0.45;100.00;102279.31;4894018;29;20032;-73
2022/01/20 07:57:20;;;;;;;22.23;8.45;;;;;;;0.49;100.00;102287.97;4930436;29;20484;-73
2022/01/20 07:59:46;;;;;;;18.95;7.80;;;;;;;0.48;100.00;102281.66;4924533;29;20027;-72
2022/01/20 08:02:12;;;;;;;18.50;6.85;;;;;;;0.49;100.00;102285.25;4946896;28;20054;-73
2022/01/20 08:04:37;;;;;;;15.98;6.57;;;;;;;0.47;100.00;102284.56;4966885;28;20031;-72
2022/01/20 08:07:03;;;;;;;16.08;6.50;;;;;;;0.50;100.00;102289.66;4929715;29;20036;-72
2022/01/20 08:09:28;;;;;;;14.23;7.10;;;;;;;0.48;100.00;102281.66;4955072;28;20027;-73
2022/01/20 08:11:54;;;;;;;17.83;6.90;;;;;;;0.47;100.00;102281.84;4904517;28;20034;-73
2022/01/20 08:14:19;;;;;;;14.70;7.13;;;;;;;0.50;100.00;102293.25;4965011;28;20036;-73
2022/01/20 08:16:45;;;;;;;14.65;6.80;;;;;;;0.48;100.00;102303.53;4949090;28;20031;-73
2022/01/20 08:19:10;;;;;;;18.20;6.90;;;;;;;0.50;100.00;102306.91;4941930;29;20027;-72
2022/01/20 08:21:36;;;;;;;15.65;6.43;;;;;;;0.50;100.00;102312.38;4955392;28;20039;-73
2022/01/20 08:24:01;;;;;;;19.00;6.82;;;;;;;0.51;100.00;102316.00;4925123;29;20031;-73
2022/01/20 08:26:27;;;;;;;16.92;6.82;;;;;;;0.57;100.00;102320.72;4946032;28;20167;-72
2022/01/20 08:28:53;;;;;;;18.65;7.15;;;;;;;0.60;100.00;102323.94;4937435;29;20040;-72
2022/01/20 08:31:18;;;;;;;13.30;6.28;;;;;;;0.66;100.00;102312.25;4925867;29;20035;-72
2022/01/20 08:33:44;;;;;;;14.85;6.25;;;;;;;0.70;100.00;102323.69;4909500;29;20035;-72
2022/01/20 08:36:09;;;;;;;14.85;6.13;;;;;;;0.71;100.00;102324.53;4906778;29;20117;-71
2022/01/20 08:38:35;;;;;;;19.92;6.60;;;;;;;0.79;100.00;102319.84;4927030;28;20027;-72
2022/01/20 08:41:00;;;;;;;14.65;6.05;;;;;;;0.84;100.00;102322.03;4955522;28;20044;-74
2022/01/20 08:43:26;;;;;;;12.50;5.90;;;;;;;0.89;100.00;102330.50;4954952;28;20500;-73
2022/01/20 08:45:51;;;;;;;17.75;6.40;;;;;;;0.95;100.00;102324.31;4957913;28;20035;-74
2022/01/20 08:48:17;;;;;;;19.85;6.47;;;;;;;1.03;100.00;102323.34;4924650;29;20028;-74
2022/01/20 08:50:43;;;;;;;18.45;6.05;;;;;;;1.10;100.00;102330.63;4961070;28;20031;-75
2022/01/20 08:53:08;;;;;;;16.85;5.78;;;;;;;1.22;100.00;102331.03;4925104;28;20066;-75
2022/01/20 08:55:35;;;;;;;15.77;6.50;;;;;;;1.28;100.00;102332.16;4953744;28;20039;-74
2022/01/20 08:58:01;;;;;;;13.25;5.80;;;;;;;1.39;100.00;102337.16;4944558;29;20047;-73
2022/01/20 09:00:28;;;;;;;15.75;6.32;;;;;;;1.49;100.00;102329.53;4961459;28;20038;-73
2022/01/20 09:02:53;;;;;;;17.08;6.60;;;;;;;1.59;100.00;102323.78;4972226;28;20035;-74
2022/01/20 09:05:19;;;;;;;19.73;7.60;;;;;;;1.67;100.00;102318.19;4974974;28;20030;-73
2022/01/20 09:07:45;;;;;;;17.15;7.00;;;;;;;1.79;100.00;102318.53;4960077;28;20031;-73
2022/01/20 09:10:18;;;;;;;15.57;6.55;;;;;;;1.89;100.00;102318.22;4967541;28;20031;-74
2022/01/20 09:15:29;;;;;;;12.77;6.20;;;;;;;2.05;100.00;102322.63;4942279;29;20035;-73
2022/01/20 09:17:55;;;;;;;19.27;6.60;;;;;;;2.16;100.00;102325.72;4911328;29;20043;-73
2022/01/20 09:20:21;;;;;;;13.45;6.10;;;;;;;2.25;100.00;102329.19;4944970;28;20034;-73
2022/01/20 09:22:48;;;;;;;16.08;6.45;;;;;;;2.35;100.00;102331.63;4971914;28;20045;-73
2022/01/20 09:25:14;;;;;;;14.60;6.00;;;;;;;2.45;100.00;102334.88;4958508;28;20023;-74
2022/01/20 09:27:40;;;;;;;12.73;6.53;;;;;;;2.53;100.00;102329.25;4928615;29;20034;-73
2022/01/20 09:30:07;;;;;;;15.95;6.20;;;;;;;2.61;100.00;102328.28;4942360;29;20443;-74
2022/01/20 09:32:37;;;;;;;17.15;6.32;;;;;;;2.72;100.00;102324.16;4957602;28;20078;-74
2022/01/20 09:35:03;;;;;;;17.02;7.47;;;;;;;2.79;100.00;102320.44;4948244;28;20114;-74
2022/01/20 09:37:28;;;;;;;14.48;6.30;;;;;;;2.89;100.00;102312.69;4936004;29;20038;-74
2022/01/20 09:39:54;;;;;;;16.30;6.00;;;;;;;3.00;100.00;102321.44;4957427;28;20051;-74
2022/01/20 09:42:20;;;;;;;15.18;5.35;;;;;;;3.09;100.00;102325.72;4972626;28;20035;-74
2022/01/20 09:44:46;;;;;;;17.70;5.25;;;;;;;3.18;100.00;102335.53;4941558;29;20050;-74
2022/01/20 09:47:12;;;;;;;20.00;6.75;;;;;;;3.28;100.00;102332.41;4943494;29;20035;-74
2022/01/20 09:49:38;;;;;;;16.10;6.43;;;;;;;3.38;100.00;102345.78;4959240;28;20031;-74
2022/01/20 09:52:04;;;;;;;18.27;6.47;;;;;;;3.52;100.00;102353.06;4965912;28;20429;-74
2022/01/20 09:54:29;;;;;;;15.93;5.63;;;;;;;3.61;100.00;102351.00;4954120;28;20039;-74
2022/01/20 09:56:57;;;;;;;16.70;5.50;;;;;;;3.75;100.00;102341.75;4926621;29;20042;-74
2022/01/20 09:59:23;;;;;;;19.27;6.50;;;;;;;3.86;100.00;102341.19;4959228;28;20050;-74
2022/01/20 10:01:50;;;;;;;18.50;5.82;;;;;;;3.96;100.00;102329.81;4959903;28;20032;-74
2022/01/20 10:04:26;;;;;;;17.48;5.30;;;;;;;4.08;100.00;102325.41;4940437;29;20126;-74
2022/01/20 10:07:02;;;;;;;24.30;7.78;;;;;;;4.19;100.00;102321.22;4957863;28;20037;-74
2022/01/20 10:09:37;;;;;;;23.40;6.78;;;;;;;4.29;100.00;102334.56;4942217;28;20038;-74
2022/01/20 10:12:03;;;;;;;23.80;7.15;;;;;;;4.40;100.00;102334.81;4943970;29;20031;-74
2022/01/20 10:14:46;;;;;;;23.38;8.30;;;;;;;4.46;100.00;102327.63;4959092;28;20066;-74
2022/01/20 10:17:15;;;;;;;29.48;9.60;;;;;;;4.57;100.00;102324.25;4930346;28;20035;-74
2022/01/20 10:19:41;;;;;;;22.75;9.05;;;;;;;4.67;100.00;102319.16;4950927;28;20046;-74
2022/01/20 10:22:14;;;;;;;26.48;8.70;;;;;;;4.79;100.00;102324.91;4963871;28;20030;-74
2022/01/20 10:24:40;;;;;;;26.45;9.43;;;;;;;4.89;100.00;102338.25;4942714;29;20063;-74
2022/01/20 10:27:10;;;;;;;31.27;9.90;;;;;;;4.98;100.00;102341.63;4940308;29;20047;-74
2022/01/20 10:29:36;;;;;;;26.50;11.43;;;;;;;5.06;100.00;102355.19;4942763;29;20523;-74
2022/01/20 10:32:02;;;;;;;27.05;11.35;;;;;;;5.12;100.00;102355.16;4940039;28;20024;-74
2022/01/20 10:34:31;;;;;;;37.75;15.20;;;;;;;5.09;100.00;102357.50;4945409;29;20043;-74
2022/01/20 10:37:00;;;;;;;28.90;13.25;;;;;;;5.20;100.00;102358.78;4958597;28;20110;-74
2022/01/20 10:39:37;;;;;;;36.15;12.48;;;;;;;5.28;100.00;102353.06;4973019;28;20504;-74
2022/01/20 10:42:10;;;;;;;37.17;14.73;;;;;;;5.28;100.00;102353.06;4958169;28;20039;-74
2022/01/20 10:45:02;;;;;;;;;;;;;;;5.37;100.00;102355.34;4969682;28;20034;-74
2022/01/20 10:47:29;;;;;;;33.20;12.68;;;;;;;5.40;100.00;102367.00;4955309;28;19934;-74
2022/01/20 10:49:56;;;;;;;27.77;12.85;;;;;;;5.44;100.00;102368.28;4928046;29;20042;-74
2022/01/20 10:52:22;;;;;;;33.20;12.25;;;;;;;5.44;100.00;102371.06;4943832;29;20039;-74
2022/01/20 10:54:52;;;;;;;31.02;10.85;;;;;;;5.45;100.00;102386.50;4927228;28;20034;-75
2022/01/20 10:57:27;;;;;;;30.92;10.25;;;;;;;5.50;100.00;102379.28;4952287;29;20062;-74
2022/01/20 10:59:55;;;;;;;31.73;8.98;;;;;;;5.46;100.00;102380.81;4950601;28;20031;-74
2022/01/20 11:02:26;;;;;;;29.60;9.02;;;;;;;5.54;100.00;102386.09;4973578;28;20031;-75
2022/01/20 11:04:53;;;;;;;24.58;8.52;;;;;;;5.62;100.00;102392.41;4914018;29;20039;-74
2022/01/20 11:07:18;;;;;;;32.75;9.45;;;;;;;5.62;100.00;102400.69;4956100;28;20496;-74
2022/01/20 11:09:46;;;;;;;22.63;7.10;;;;;;;5.71;100.00;102393.88;4893250;28;20027;-74
2022/01/20 11:12:15;;;;;;;23.13;8.07;;;;;;;5.66;100.00;102396.47;4941525;29;20024;-74
2022/01/20 11:14:42;;;;;;;28.98;8.48;;;;;;;5.67;100.00;102404.50;4956900;28;20798;-74
2022/01/20 11:17:07;;;;;;;23.23;9.05;;;;;;;5.65;100.00;102403.84;4959163;28;20027;-74
2022/01/20 11:19:36;;;;;;;29.27;9.40;;;;;;;5.57;100.00;102401.31;4939604;29;20043;-75
2022/01/20 11:22:09;;;;;;;25.50;8.00;;;;;;;5.56;100.00;102400.47;4956856;28;20504;-75
2022/01/20 11:24:34;;;;;;;25.02;8.07;;;;;;;5.60;100.00;102404.53;4946951;28;20432;-75
2022/01/20 11:27:00;;;;;;;25.13;7.57;;;;;;;5.63;100.00;102399.63;4956799;28;20042;-75
2022/01/20 11:29:46;;;;;;;28.95;9.05;;;;;;;5.68;100.00;102402.59;4973064;28;20031;-74
2022/01/20 11:32:23;;;;;;;25.65;9.40;;;;;;;5.64;100.00;102398.56;4973033;28;20031;-77
2022/01/20 11:34:54;;;;;;;24.50;7.30;;;;;;;5.68;100.00;102408.09;4925494;29;20027;-74
2022/01/20 11:37:23;;;;;;;30.25;7.53;;;;;;;5.73;100.00;102406.38;4954229;28;20114;-75
2022/01/20 11:39:51;;;;;;;25.90;7.78;;;;;;;5.73;100.00;102406.38;4951025;28;20493;-75
2022/01/20 11:42:21;;;;;;;24.58;7.00;;;;;;;5.75;100.00;102409.78;4965411;28;20041;-75
2022/01/20 11:44:46;;;;;;;26.67;6.97;;;;;;;5.79;100.00;102401.91;4947322;28;20106;-76
2022/01/20 11:47:12;;;;;;;25.10;6.70;;;;;;;5.80;100.00;102409.16;4934520;28;20034;-77
2022/01/20 11:49:39;;;;;;;24.38;6.53;;;;;;;5.94;100.00;102407.22;4916309;29;20035;-76
2022/01/20 11:52:05;;;;;;;16.27;6.60;;;;;;;5.97;100.00;102404.88;4943845;29;20042;-75
2022/01/20 11:54:41;;;;;;;26.10;6.80;;;;;;;5.93;100.00;102406.34;4957074;28;20035;-75
2022/01/20 11:57:21;;;;;;;21.30;5.88;;;;;;;5.97;100.00;102407.63;4959354;28;20043;-74
2022/01/20 11:59:59;;;;;;;25.65;6.57;;;;;;;5.94;100.00;102404.47;4953894;28;20143;-74
2022/01/20 12:02:29;;;;;;;24.02;5.82;;;;;;;5.95;100.00;102397.88;4952625;28;20028;-75
2022/01/20 12:04:55;;;;;;;14.98;5.05;;;;;;;5.98;100.00;102398.28;4951921;28;20037;-75
2022/01/20 12:07:25;;;;;;;17.48;4.57;;;;;;;6.03;100.00;102390.22;4950575;28;20043;-73
2022/01/20 12:09:50;;;;;;;27.48;5.32;;;;;;;6.14;100.00;102379.56;4929679;29;20027;-74
2022/01/20 12:12:22;;;;;;;17.92;4.25;;;;;;;6.18;100.00;102378.06;4941249;28;20364;-74
2022/01/20 12:14:48;;;;;;;20.73;4.97;;;;;;;6.12;100.00;102370.66;4923367;29;20031;-75
2022/01/20 12:17:17;;;;;;;16.60;4.50;;;;;;;6.10;100.00;102375.53;4923713;29;20032;-74